sensor_id;sensor_type;location;lat;lon;timestamp;temperature;humidity
20070;DHT22;10195;50.868;4.382;2023-08-06T00:00:23;16.20;99.90
20070;DHT22;10195;50.868;4.382;2023-08-06T00:02:49;16.10;99.90
20070;DHT22;10195;50.868;4.382;2023-08-06T00:05:16;16.10;99.90
20070;DHT22;10195;50.868;4.382;2023-08-06T00:07:46;16.20;99.90
20070;DHT22;10195;50.868;4.382;2023-08-06T00:10:12;16.20;99.90
20070;DHT22;10195;50.868;4.382;2023-08-06T00:12:38;16.30;99.90
20070;DHT22;10195;50.868;4.382;2023-08-06T00:15:04;16.30;99.90
20070;DHT22;10195;50.868;4.382;2023-08-06T00:17:30;16.30;99.90
20070;DHT22;10195;50.868;4.382;2023-08-06T00:19:55;16.50;99.90
20070;DHT22;10195;50.868;4.382;2023-08-06T00:22:21;16.50;99.90
20070;DHT22;10195;50.868;4.382;2023-08-06T00:24:46;16.40;99.90
20070;DHT22;10195;50.868;4.382;2023-08-06T00:27:12;16.30;99.90
20070;DHT22;10195;50.868;4.382;2023-08-06T00:29:38;16.30;99.90
20070;DHT22;10195;50.868;4.382;2023-08-06T00:32:03;16.30;99.90
20070;DHT22;10195;50.868;4.382;2023-08-06T00:34:29;16.40;99.90
20070;DHT22;10195;50.868;4.382;2023-08-06T00:36:55;16.40;99.90
20070;DHT22;10195;50.868;4.382;2023-08-06T00:39:20;16.30;99.90
20070;DHT22;10195;50.868;4.382;2023-08-06T00:41:46;16.30;99.90
20070;DHT22;10195;50.868;4.382;2023-08-06T00:44:11;16.30;99.90
20070;DHT22;10195;50.868;4.382;2023-08-06T00:46:37;16.30;99.90
20070;DHT22;10195;50.868;4.382;2023-08-06T00:49:04;16.30;99.90
20070;DHT22;10195;50.868;4.382;2023-08-06T00:51:30;16.30;99.90
20070;DHT22;10195;50.868;4.382;2023-08-06T00:53:57;16.30;99.90
20070;DHT22;10195;50.868;4.382;2023-08-06T00:56:22;16.30;99.90
20070;DHT22;10195;50.868;4.382;2023-08-06T00:58:49;16.30;99.90
20070;DHT22;10195;50.868;4.382;2023-08-06T01:01:15;16.20;99.90
20070;DHT22;10195;50.868;4.382;2023-08-06T01:03:41;16.20;99.90
20070;DHT22;10195;50.868;4.382;2023-08-06T01:06:06;16.20;99.90
20070;DHT22;10195;50.868;4.382;2023-08-06T01:08:55;16.30;99.90
20070;DHT22;10195;50.868;4.382;2023-08-06T01:14:04;16.40;99.90
20070;DHT22;10195;50.868;4.382;2023-08-06T01:16:33;16.40;99.90
20070;DHT22;10195;50.868;4.382;2023-08-06T01:18:58;16.50;99.90
20070;DHT22;10195;50.868;4.382;2023-08-06T01:21:24;16.40;99.90
20070;DHT22;10195;50.868;4.382;2023-08-06T01:23:50;16.40;99.90
20070;DHT22;10195;50.868;4.382;2023-08-06T01:26:24;16.30;99.90
20070;DHT22;10195;50.868;4.382;2023-08-06T01:29:17;16.20;99.90
20070;DHT22;10195;50.868;4.382;2023-08-06T01:31:48;16.20;99.90
20070;DHT22;10195;50.868;4.382;2023-08-06T01:34:18;16.20;99.90
20070;DHT22;10195;50.868;4.382;2023-08-06T01:36:46;16.30;99.90
20070;DHT22;10195;50.868;4.382;2023-08-06T01:39:11;16.30;99.90
20070;DHT22;10195;50.868;4.382;2023-08-06T01:41:37;16.40;99.90
20070;DHT22;10195;50.868;4.382;2023-08-06T01:44:03;16.50;99.90
20070;DHT22;10195;50.868;4.382;2023-08-06T01:46:28;16.60;99.90
20070;DHT22;10195;50.868;4.382;2023-08-06T01:48:54;16.60;99.90
20070;DHT22;10195;50.868;4.382;2023-08-06T01:51:20;16.60;99.90
20070;DHT22;10195;50.868;4.382;2023-08-06T01:53:45;16.60;99.90
20070;DHT22;10195;50.868;4.382;2023-08-06T01:56:11;16.60;99.90
20070;DHT22;10195;50.868;4.382;2023-08-06T01:58:37;16.60;99.90
20070;DHT22;10195;50.868;4.382;2023-08-06T02:01:02;16.50;99.90
20070;DHT22;10195;50.868;4.382;2023-08-06T02:03:28;16.50;99.90
20070;DHT22;10195;50.868;4.382;2023-08-06T02:05:54;16.50;99.90
20070;DHT22;10195;50.868;4.382;2023-08-06T02:08:19;16.40;99.90
20070;DHT22;10195;50.868;4.382;2023-08-06T02:10:45;16.20;99.90
20070;DHT22;10195;50.868;4.382;2023-08-06T02:13:11;16.20;99.90
20070;DHT22;10195;50.868;4.382;2023-08-06T02:15:45;16.30;99.90
20070;DHT22;10195;50.868;4.382;2023-08-06T02:18:13;16.40;99.90
20070;DHT22;10195;50.868;4.382;2023-08-06T02:20:39;16.30;99.90
20070;DHT22;10195;50.868;4.382;2023-08-06T02:23:04;16.40;99.90
20070;DHT22;10195;50.868;4.382;2023-08-06T02:25:30;16.30;99.90
20070;DHT22;10195;50.868;4.382;2023-08-06T02:27:56;16.40;99.90
20070;DHT22;10195;50.868;4.382;2023-08-06T02:30:21;16.30;99.90
20070;DHT22;10195;50.868;4.382;2023-08-06T02:32:47;16.20;99.90
20070;DHT22;10195;50.868;4.382;2023-08-06T02:35:12;16.10;99.90
20070;DHT22;10195;50.868;4.382;2023-08-06T02:37:38;16.20;99.90
20070;DHT22;10195;50.868;4.382;2023-08-06T02:40:04;16.10;99.90
20070;DHT22;10195;50.868;4.382;2023-08-06T02:42:30;16.20;99.90
20070;DHT22;10195;50.868;4.382;2023-08-06T02:44:55;16.20;99.90
20070;DHT22;10195;50.868;4.382;2023-08-06T02:47:21;16.10;99.90
20070;DHT22;10195;50.868;4.382;2023-08-06T02:49:47;16.10;99.90
20070;DHT22;10195;50.868;4.382;2023-08-06T02:52:12;16.20;99.90
20070;DHT22;10195;50.868;4.382;2023-08-06T02:54:38;16.10;99.90
20070;DHT22;10195;50.868;4.382;2023-08-06T02:57:05;16.10;99.90
20070;DHT22;10195;50.868;4.382;2023-08-06T02:59:31;16.10;99.90
20070;DHT22;10195;50.868;4.382;2023-08-06T03:01:57;16.10;99.90
20070;DHT22;10195;50.868;4.382;2023-08-06T03:04:22;16.20;99.90
20070;DHT22;10195;50.868;4.382;2023-08-06T03:06:51;16.10;99.90
20070;DHT22;10195;50.868;4.382;2023-08-06T03:09:20;16.10;99.90
20070;DHT22;10195;50.868;4.382;2023-08-06T03:11:45;16.00;99.90
20070;DHT22;10195;50.868;4.382;2023-08-06T03:14:11;16.10;99.90
20070;DHT22;10195;50.868;4.382;2023-08-06T03:16:36;16.10;99.90
20070;DHT22;10195;50.868;4.382;2023-08-06T03:19:02;16.20;99.90
20070;DHT22;10195;50.868;4.382;2023-08-06T03:21:28;16.30;99.90
20070;DHT22;10195;50.868;4.382;2023-08-06T03:23:53;16.10;99.90
20070;DHT22;10195;50.868;4.382;2023-08-06T03:26:19;16.10;99.90
20070;DHT22;10195;50.868;4.382;2023-08-06T03:28:44;16.00;99.90
20070;DHT22;10195;50.868;4.382;2023-08-06T03:31:10;16.00;99.90
20070;DHT22;10195;50.868;4.382;2023-08-06T03:33:36;16.00;99.90
20070;DHT22;10195;50.868;4.382;2023-08-06T03:36:02;16.00;99.90
20070;DHT22;10195;50.868;4.382;2023-08-06T03:38:28;16.00;99.90
20070;DHT22;10195;50.868;4.382;2023-08-06T03:40:53;16.00;99.90
20070;DHT22;10195;50.868;4.382;2023-08-06T03:43:19;16.00;99.90
20070;DHT22;10195;50.868;4.382;2023-08-06T03:45:45;16.10;99.90
20070;DHT22;10195;50.868;4.382;2023-08-06T03:48:10;16.00;99.90
20070;DHT22;10195;50.868;4.382;2023-08-06T03:50:36;16.00;99.90
20070;DHT22;10195;50.868;4.382;2023-08-06T03:53:02;16.00;99.90
20070;DHT22;10195;50.868;4.382;2023-08-06T03:55:27;15.90;99.90
20070;DHT22;10195;50.868;4.382;2023-08-06T03:57:53;15.90;99.90
20070;DHT22;10195;50.868;4.382;2023-08-06T04:00:19;15.80;99.90
20070;DHT22;10195;50.868;4.382;2023-08-06T04:02:45;15.80;99.90
20070;DHT22;10195;50.868;4.382;2023-08-06T04:05:11;15.80;99.90
20070;DHT22;10195;50.868;4.382;2023-08-06T04:07:37;15.70;99.90
20070;DHT22;10195;50.868;4.382;2023-08-06T04:10:04;15.50;99.90
20070;DHT22;10195;50.868;4.382;2023-08-06T04:12:30;15.40;99.90
20070;DHT22;10195;50.868;4.382;2023-08-06T04:14:58;15.30;99.90
20070;DHT22;10195;50.868;4.382;2023-08-06T04:17:23;15.30;99.90
20070;DHT22;10195;50.868;4.382;2023-08-06T04:19:54;15.30;99.90
20070;DHT22;10195;50.868;4.382;2023-08-06T04:22:20;15.20;99.90
20070;DHT22;10195;50.868;4.382;2023-08-06T04:24:46;15.10;99.90
20070;DHT22;10195;50.868;4.382;2023-08-06T04:27:13;15.10;99.90
20070;DHT22;10195;50.868;4.382;2023-08-06T04:29:39;15.00;99.90
20070;DHT22;10195;50.868;4.382;2023-08-06T04:32:07;15.00;99.90
20070;DHT22;10195;50.868;4.382;2023-08-06T04:34:33;15.00;99.90
20070;DHT22;10195;50.868;4.382;2023-08-06T04:36:59;14.90;99.90
20070;DHT22;10195;50.868;4.382;2023-08-06T04:39:25;14.70;99.90
20070;DHT22;10195;50.868;4.382;2023-08-06T04:41:51;14.60;99.90
20070;DHT22;10195;50.868;4.382;2023-08-06T04:44:16;14.50;99.90
20070;DHT22;10195;50.868;4.382;2023-08-06T04:46:42;14.50;99.90
20070;DHT22;10195;50.868;4.382;2023-08-06T04:49:07;14.40;99.90
20070;DHT22;10195;50.868;4.382;2023-08-06T04:51:33;14.30;99.90
20070;DHT22;10195;50.868;4.382;2023-08-06T04:53:59;14.30;99.90
20070;DHT22;10195;50.868;4.382;2023-08-06T04:56:24;14.30;99.90
20070;DHT22;10195;50.868;4.382;2023-08-06T04:58:50;14.20;99.90
20070;DHT22;10195;50.868;4.382;2023-08-06T05:01:16;14.20;99.90
20070;DHT22;10195;50.868;4.382;2023-08-06T05:03:42;14.20;99.90
20070;DHT22;10195;50.868;4.382;2023-08-06T05:06:07;14.20;99.90
20070;DHT22;10195;50.868;4.382;2023-08-06T05:08:33;14.30;99.90
20070;DHT22;10195;50.868;4.382;2023-08-06T05:10:59;14.30;99.90
20070;DHT22;10195;50.868;4.382;2023-08-06T05:13:24;14.40;99.90
20070;DHT22;10195;50.868;4.382;2023-08-06T05:15:51;14.40;99.90
20070;DHT22;10195;50.868;4.382;2023-08-06T05:18:18;14.50;99.90
20070;DHT22;10195;50.868;4.382;2023-08-06T05:20:44;14.50;99.90
20070;DHT22;10195;50.868;4.382;2023-08-06T05:23:10;14.60;99.90
20070;DHT22;10195;50.868;4.382;2023-08-06T05:25:37;14.60;99.90
20070;DHT22;10195;50.868;4.382;2023-08-06T05:28:03;14.70;99.90
20070;DHT22;10195;50.868;4.382;2023-08-06T05:30:29;14.60;99.90
20070;DHT22;10195;50.868;4.382;2023-08-06T05:32:54;14.70;99.90
20070;DHT22;10195;50.868;4.382;2023-08-06T05:35:21;14.70;99.90
20070;DHT22;10195;50.868;4.382;2023-08-06T05:37:47;14.70;99.90
20070;DHT22;10195;50.868;4.382;2023-08-06T05:40:13;14.70;99.90
20070;DHT22;10195;50.868;4.382;2023-08-06T05:42:39;14.70;99.90
20070;DHT22;10195;50.868;4.382;2023-08-06T05:45:05;14.80;99.90
20070;DHT22;10195;50.868;4.382;2023-08-06T05:47:31;14.80;99.90
20070;DHT22;10195;50.868;4.382;2023-08-06T05:49:57;14.90;99.90
20070;DHT22;10195;50.868;4.382;2023-08-06T05:52:23;14.90;99.90
20070;DHT22;10195;50.868;4.382;2023-08-06T05:54:48;14.80;99.90
20070;DHT22;10195;50.868;4.382;2023-08-06T05:57:14;14.90;99.90
20070;DHT22;10195;50.868;4.382;2023-08-06T05:59:40;14.90;99.90
20070;DHT22;10195;50.868;4.382;2023-08-06T06:02:06;14.90;99.90
20070;DHT22;10195;50.868;4.382;2023-08-06T06:04:32;14.90;99.90
20070;DHT22;10195;50.868;4.382;2023-08-06T06:06:58;14.90;99.90
20070;DHT22;10195;50.868;4.382;2023-08-06T06:09:23;14.90;99.90
20070;DHT22;10195;50.868;4.382;2023-08-06T06:11:49;15.00;99.90
20070;DHT22;10195;50.868;4.382;2023-08-06T06:14:16;15.00;99.90
20070;DHT22;10195;50.868;4.382;2023-08-06T06:16:42;15.10;99.90
20070;DHT22;10195;50.868;4.382;2023-08-06T06:19:07;15.10;99.90
20070;DHT22;10195;50.868;4.382;2023-08-06T06:21:33;15.10;99.90
20070;DHT22;10195;50.868;4.382;2023-08-06T06:23:59;15.10;99.90
20070;DHT22;10195;50.868;4.382;2023-08-06T06:26:24;15.20;99.90
20070;DHT22;10195;50.868;4.382;2023-08-06T06:28:50;15.30;99.90
20070;DHT22;10195;50.868;4.382;2023-08-06T06:31:16;15.30;99.90
20070;DHT22;10195;50.868;4.382;2023-08-06T06:33:41;15.40;99.90
20070;DHT22;10195;50.868;4.382;2023-08-06T06:36:07;15.40;99.90
20070;DHT22;10195;50.868;4.382;2023-08-06T06:38:33;15.60;99.90
20070;DHT22;10195;50.868;4.382;2023-08-06T06:40:59;15.80;99.90
20070;DHT22;10195;50.868;4.382;2023-08-06T06:43:25;15.70;99.90
20070;DHT22;10195;50.868;4.382;2023-08-06T06:46:01;15.80;99.90
20070;DHT22;10195;50.868;4.382;2023-08-06T06:48:27;15.90;99.90
20070;DHT22;10195;50.868;4.382;2023-08-06T06:50:53;15.80;99.90
20070;DHT22;10195;50.868;4.382;2023-08-06T06:53:19;15.80;99.90
20070;DHT22;10195;50.868;4.382;2023-08-06T06:55:45;15.90;99.90
20070;DHT22;10195;50.868;4.382;2023-08-06T06:58:15;15.90;99.90
20070;DHT22;10195;50.868;4.382;2023-08-06T07:00:41;16.00;99.90
20070;DHT22;10195;50.868;4.382;2023-08-06T07:03:07;16.00;99.90
20070;DHT22;10195;50.868;4.382;2023-08-06T07:05:32;15.70;99.90
20070;DHT22;10195;50.868;4.382;2023-08-06T07:07:58;15.60;99.90
20070;DHT22;10195;50.868;4.382;2023-08-06T07:10:24;15.40;99.90
20070;DHT22;10195;50.868;4.382;2023-08-06T07:12:49;15.40;99.90
20070;DHT22;10195;50.868;4.382;2023-08-06T07:15:15;15.50;99.90
20070;DHT22;10195;50.868;4.382;2023-08-06T07:17:43;15.60;99.90
20070;DHT22;10195;50.868;4.382;2023-08-06T07:20:08;15.70;99.90
20070;DHT22;10195;50.868;4.382;2023-08-06T07:22:34;15.60;99.90
20070;DHT22;10195;50.868;4.382;2023-08-06T07:25:00;15.60;99.90
20070;DHT22;10195;50.868;4.382;2023-08-06T07:27:26;15.50;99.90
20070;DHT22;10195;50.868;4.382;2023-08-06T07:29:51;15.50;99.90
20070;DHT22;10195;50.868;4.382;2023-08-06T07:32:17;15.30;99.90
20070;DHT22;10195;50.868;4.382;2023-08-06T07:34:43;15.10;99.90
20070;DHT22;10195;50.868;4.382;2023-08-06T07:37:08;15.10;99.90
20070;DHT22;10195;50.868;4.382;2023-08-06T07:39:34;15.20;99.90
20070;DHT22;10195;50.868;4.382;2023-08-06T07:41:59;15.20;99.90
20070;DHT22;10195;50.868;4.382;2023-08-06T07:44:27;15.30;99.90
20070;DHT22;10195;50.868;4.382;2023-08-06T07:46:53;15.60;99.90
20070;DHT22;10195;50.868;4.382;2023-08-06T07:49:18;15.80;99.90
20070;DHT22;10195;50.868;4.382;2023-08-06T07:51:44;16.10;99.90
20070;DHT22;10195;50.868;4.382;2023-08-06T07:54:10;16.00;99.90
20070;DHT22;10195;50.868;4.382;2023-08-06T07:56:35;15.90;99.90
20070;DHT22;10195;50.868;4.382;2023-08-06T07:59:02;15.90;99.90
20070;DHT22;10195;50.868;4.382;2023-08-06T08:01:27;16.00;99.90
20070;DHT22;10195;50.868;4.382;2023-08-06T08:03:53;16.20;99.90
20070;DHT22;10195;50.868;4.382;2023-08-06T08:06:19;16.20;99.90
20070;DHT22;10195;50.868;4.382;2023-08-06T08:08:44;16.30;99.90
20070;DHT22;10195;50.868;4.382;2023-08-06T08:11:10;16.40;99.90
20070;DHT22;10195;50.868;4.382;2023-08-06T08:13:36;16.70;99.90
20070;DHT22;10195;50.868;4.382;2023-08-06T08:16:02;16.80;99.90
20070;DHT22;10195;50.868;4.382;2023-08-06T08:18:27;16.90;99.90
20070;DHT22;10195;50.868;4.382;2023-08-06T08:20:53;16.70;99.90
20070;DHT22;10195;50.868;4.382;2023-08-06T08:23:19;16.60;99.90
20070;DHT22;10195;50.868;4.382;2023-08-06T08:25:44;16.50;99.90
20070;DHT22;10195;50.868;4.382;2023-08-06T08:28:10;16.40;99.90
20070;DHT22;10195;50.868;4.382;2023-08-06T08:30:36;16.20;99.90
20070;DHT22;10195;50.868;4.382;2023-08-06T08:33:01;15.90;99.90
20070;DHT22;10195;50.868;4.382;2023-08-06T08:35:27;15.90;99.90
20070;DHT22;10195;50.868;4.382;2023-08-06T08:37:52;15.80;99.90
20070;DHT22;10195;50.868;4.382;2023-08-06T08:40:20;15.80;99.90
20070;DHT22;10195;50.868;4.382;2023-08-06T08:42:48;15.60;99.90
20070;DHT22;10195;50.868;4.382;2023-08-06T08:45:15;15.70;99.90
20070;DHT22;10195;50.868;4.382;2023-08-06T08:47:41;15.70;99.90
20070;DHT22;10195;50.868;4.382;2023-08-06T08:50:09;15.80;99.90
20070;DHT22;10195;50.868;4.382;2023-08-06T08:52:36;16.10;99.90
20070;DHT22;10195;50.868;4.382;2023-08-06T08:55:03;16.20;99.90
20070;DHT22;10195;50.868;4.382;2023-08-06T08:57:29;16.30;99.90
20070;DHT22;10195;50.868;4.382;2023-08-06T08:59:55;16.40;99.90
20070;DHT22;10195;50.868;4.382;2023-08-06T09:02:21;16.10;99.90
20070;DHT22;10195;50.868;4.382;2023-08-06T09:04:48;16.20;99.90
20070;DHT22;10195;50.868;4.382;2023-08-06T09:07:18;16.30;99.90
20070;DHT22;10195;50.868;4.382;2023-08-06T09:09:48;16.40;99.90
20070;DHT22;10195;50.868;4.382;2023-08-06T09:12:16;16.40;99.90
20070;DHT22;10195;50.868;4.382;2023-08-06T09:14:43;16.40;99.90
20070;DHT22;10195;50.868;4.382;2023-08-06T09:17:09;16.40;99.90
20070;DHT22;10195;50.868;4.382;2023-08-06T09:19:36;16.40;99.90
20070;DHT22;10195;50.868;4.382;2023-08-06T09:22:02;16.30;99.90
20070;DHT22;10195;50.868;4.382;2023-08-06T09:24:28;16.20;99.90
20070;DHT22;10195;50.868;4.382;2023-08-06T09:26:54;16.00;99.90
20070;DHT22;10195;50.868;4.382;2023-08-06T09:29:20;16.00;99.90
20070;DHT22;10195;50.868;4.382;2023-08-06T09:31:47;16.00;99.90
20070;DHT22;10195;50.868;4.382;2023-08-06T09:34:18;15.70;99.90
20070;DHT22;10195;50.868;4.382;2023-08-06T09:36:53;15.70;99.90
20070;DHT22;10195;50.868;4.382;2023-08-06T09:39:20;15.80;99.90
20070;DHT22;10195;50.868;4.382;2023-08-06T09:41:48;15.60;99.90
20070;DHT22;10195;50.868;4.382;2023-08-06T09:44:21;15.60;99.90
20070;DHT22;10195;50.868;4.382;2023-08-06T09:47:08;15.80;99.90
20070;DHT22;10195;50.868;4.382;2023-08-06T09:52:00;15.80;99.90
20070;DHT22;10195;50.868;4.382;2023-08-06T09:54:27;15.70;99.90
20070;DHT22;10195;50.868;4.382;2023-08-06T09:56:53;15.70;99.90
20070;DHT22;10195;50.868;4.382;2023-08-06T09:59:19;15.70;99.90
20070;DHT22;10195;50.868;4.382;2023-08-06T10:01:46;15.60;99.90
20070;DHT22;10195;50.868;4.382;2023-08-06T10:04:13;15.50;99.90
20070;DHT22;10195;50.868;4.382;2023-08-06T10:06:42;15.60;99.90
20070;DHT22;10195;50.868;4.382;2023-08-06T10:09:08;15.60;99.90
20070;DHT22;10195;50.868;4.382;2023-08-06T10:11:36;15.70;99.90
20070;DHT22;10195;50.868;4.382;2023-08-06T10:16:39;15.70;99.90
20070;DHT22;10195;50.868;4.382;2023-08-06T10:19:08;15.80;99.90
20070;DHT22;10195;50.868;4.382;2023-08-06T10:21:35;15.90;99.90
20070;DHT22;10195;50.868;4.382;2023-08-06T10:24:00;15.80;99.90
20070;DHT22;10195;50.868;4.382;2023-08-06T10:26:28;15.70;99.90
20070;DHT22;10195;50.868;4.382;2023-08-06T10:28:54;15.60;99.90
20070;DHT22;10195;50.868;4.382;2023-08-06T10:31:58;15.50;99.90
20070;DHT22;10195;50.868;4.382;2023-08-06T10:34:24;15.60;99.90
20070;DHT22;10195;50.868;4.382;2023-08-06T10:36:50;15.70;99.90
20070;DHT22;10195;50.868;4.382;2023-08-06T10:39:15;15.80;99.90
20070;DHT22;10195;50.868;4.382;2023-08-06T10:41:44;15.80;99.90
20070;DHT22;10195;50.868;4.382;2023-08-06T10:44:11;15.70;99.90
20070;DHT22;10195;50.868;4.382;2023-08-06T10:46:38;15.60;99.90
20070;DHT22;10195;50.868;4.382;2023-08-06T10:49:04;15.70;99.90
20070;DHT22;10195;50.868;4.382;2023-08-06T10:51:30;15.70;99.90
20070;DHT22;10195;50.868;4.382;2023-08-06T10:53:56;15.60;99.90
20070;DHT22;10195;50.868;4.382;2023-08-06T10:56:26;15.40;99.90
20070;DHT22;10195;50.868;4.382;2023-08-06T10:58:56;15.40;99.90
20070;DHT22;10195;50.868;4.382;2023-08-06T11:01:23;15.60;99.90
20070;DHT22;10195;50.868;4.382;2023-08-06T11:03:50;15.50;99.90
20070;DHT22;10195;50.868;4.382;2023-08-06T11:06:20;15.50;99.90
20070;DHT22;10195;50.868;4.382;2023-08-06T11:08:53;15.60;99.90
20070;DHT22;10195;50.868;4.382;2023-08-06T11:11:20;15.60;99.90
20070;DHT22;10195;50.868;4.382;2023-08-06T11:13:48;15.70;99.90
20070;DHT22;10195;50.868;4.382;2023-08-06T11:16:19;15.80;99.90
20070;DHT22;10195;50.868;4.382;2023-08-06T11:18:45;15.90;99.90
20070;DHT22;10195;50.868;4.382;2023-08-06T11:21:11;15.80;99.90
20070;DHT22;10195;50.868;4.382;2023-08-06T11:23:40;15.80;99.90
20070;DHT22;10195;50.868;4.382;2023-08-06T11:26:06;15.90;99.90
20070;DHT22;10195;50.868;4.382;2023-08-06T11:28:32;15.90;99.90
20070;DHT22;10195;50.868;4.382;2023-08-06T11:30:58;16.00;99.90
20070;DHT22;10195;50.868;4.382;2023-08-06T11:33:27;15.70;99.90
20070;DHT22;10195;50.868;4.382;2023-08-06T11:35:57;15.30;99.90
20070;DHT22;10195;50.868;4.382;2023-08-06T11:38:29;15.40;99.90
20070;DHT22;10195;50.868;4.382;2023-08-06T11:40:56;15.40;99.90
20070;DHT22;10195;50.868;4.382;2023-08-06T11:43:22;15.20;99.90
20070;DHT22;10195;50.868;4.382;2023-08-06T11:45:48;15.10;99.90
20070;DHT22;10195;50.868;4.382;2023-08-06T11:48:14;15.00;99.90
20070;DHT22;10195;50.868;4.382;2023-08-06T11:50:40;15.00;99.90
20070;DHT22;10195;50.868;4.382;2023-08-06T11:53:06;15.20;99.90
20070;DHT22;10195;50.868;4.382;2023-08-06T11:55:32;15.40;99.90
20070;DHT22;10195;50.868;4.382;2023-08-06T11:58:03;15.50;99.90
20070;DHT22;10195;50.868;4.382;2023-08-06T12:00:30;15.60;99.90
20070;DHT22;10195;50.868;4.382;2023-08-06T12:02:56;15.60;99.90
20070;DHT22;10195;50.868;4.382;2023-08-06T12:05:23;15.70;99.90
20070;DHT22;10195;50.868;4.382;2023-08-06T12:07:57;15.80;99.90
20070;DHT22;10195;50.868;4.382;2023-08-06T12:10:25;15.90;99.90
20070;DHT22;10195;50.868;4.382;2023-08-06T12:12:51;16.00;99.90
20070;DHT22;10195;50.868;4.382;2023-08-06T12:15:17;16.00;99.90
20070;DHT22;10195;50.868;4.382;2023-08-06T12:17:43;16.20;99.90
20070;DHT22;10195;50.868;4.382;2023-08-06T12:20:09;16.30;99.90
20070;DHT22;10195;50.868;4.382;2023-08-06T12:22:36;16.40;99.90
20070;DHT22;10195;50.868;4.382;2023-08-06T12:25:04;16.30;99.90
20070;DHT22;10195;50.868;4.382;2023-08-06T12:27:32;16.20;99.90
20070;DHT22;10195;50.868;4.382;2023-08-06T12:29:57;16.30;99.90
20070;DHT22;10195;50.868;4.382;2023-08-06T12:32:23;16.40;99.90
20070;DHT22;10195;50.868;4.382;2023-08-06T12:34:49;16.60;99.90
20070;DHT22;10195;50.868;4.382;2023-08-06T12:37:14;16.70;99.90
20070;DHT22;10195;50.868;4.382;2023-08-06T12:39:40;16.30;99.90
20070;DHT22;10195;50.868;4.382;2023-08-06T12:42:06;16.20;99.90
20070;DHT22;10195;50.868;4.382;2023-08-06T12:44:32;16.30;99.90
20070;DHT22;10195;50.868;4.382;2023-08-06T12:46:58;16.30;99.90
20070;DHT22;10195;50.868;4.382;2023-08-06T12:49:25;16.20;99.90
20070;DHT22;10195;50.868;4.382;2023-08-06T12:51:53;16.20;99.90
20070;DHT22;10195;50.868;4.382;2023-08-06T12:54:20;16.30;99.90
20070;DHT22;10195;50.868;4.382;2023-08-06T12:56:47;16.40;99.90
20070;DHT22;10195;50.868;4.382;2023-08-06T12:59:15;16.50;99.90
20070;DHT22;10195;50.868;4.382;2023-08-06T13:01:41;16.70;99.90
20070;DHT22;10195;50.868;4.382;2023-08-06T13:04:06;16.50;99.90
20070;DHT22;10195;50.868;4.382;2023-08-06T13:06:32;16.40;99.90
20070;DHT22;10195;50.868;4.382;2023-08-06T13:09:11;16.20;99.90
20070;DHT22;10195;50.868;4.382;2023-08-06T13:11:39;16.20;99.90
20070;DHT22;10195;50.868;4.382;2023-08-06T13:14:13;16.10;99.90
20070;DHT22;10195;50.868;4.382;2023-08-06T13:16:40;16.10;99.90
20070;DHT22;10195;50.868;4.382;2023-08-06T13:19:07;16.20;99.90
20070;DHT22;10195;50.868;4.382;2023-08-06T13:21:35;16.10;99.90
20070;DHT22;10195;50.868;4.382;2023-08-06T13:24:02;16.00;99.90
20070;DHT22;10195;50.868;4.382;2023-08-06T13:26:29;15.80;99.90
20070;DHT22;10195;50.868;4.382;2023-08-06T13:28:56;15.80;99.90
20070;DHT22;10195;50.868;4.382;2023-08-06T13:31:22;15.90;99.90
20070;DHT22;10195;50.868;4.382;2023-08-06T13:33:48;15.80;99.90
20070;DHT22;10195;50.868;4.382;2023-08-06T13:36:18;15.70;99.90
20070;DHT22;10195;50.868;4.382;2023-08-06T13:38:44;15.70;99.90
20070;DHT22;10195;50.868;4.382;2023-08-06T13:41:09;15.70;99.90
20070;DHT22;10195;50.868;4.382;2023-08-06T13:43:35;15.60;99.90
20070;DHT22;10195;50.868;4.382;2023-08-06T13:46:00;15.50;99.90
20070;DHT22;10195;50.868;4.382;2023-08-06T13:48:26;15.40;99.90
20070;DHT22;10195;50.868;4.382;2023-08-06T13:50:52;15.40;99.90
20070;DHT22;10195;50.868;4.382;2023-08-06T13:53:18;15.50;99.90
20070;DHT22;10195;50.868;4.382;2023-08-06T13:55:43;15.40;99.90
20070;DHT22;10195;50.868;4.382;2023-08-06T13:58:09;15.50;99.90
20070;DHT22;10195;50.868;4.382;2023-08-06T14:00:36;15.30;99.90
20070;DHT22;10195;50.868;4.382;2023-08-06T14:03:03;15.40;99.90
20070;DHT22;10195;50.868;4.382;2023-08-06T14:05:28;15.30;99.90
20070;DHT22;10195;50.868;4.382;2023-08-06T14:07:54;15.40;99.90
20070;DHT22;10195;50.868;4.382;2023-08-06T14:10:19;15.40;99.90
20070;DHT22;10195;50.868;4.382;2023-08-06T14:12:45;15.40;99.90
20070;DHT22;10195;50.868;4.382;2023-08-06T14:15:11;15.40;99.90
20070;DHT22;10195;50.868;4.382;2023-08-06T14:17:37;15.70;99.90
20070;DHT22;10195;50.868;4.382;2023-08-06T14:20:04;15.60;99.90
20070;DHT22;10195;50.868;4.382;2023-08-06T14:22:30;15.50;99.90
20070;DHT22;10195;50.868;4.382;2023-08-06T14:24:59;15.40;99.90
20070;DHT22;10195;50.868;4.382;2023-08-06T14:27:25;15.60;99.90
20070;DHT22;10195;50.868;4.382;2023-08-06T14:29:51;15.50;99.90
20070;DHT22;10195;50.868;4.382;2023-08-06T14:32:16;15.50;99.90
20070;DHT22;10195;50.868;4.382;2023-08-06T14:34:44;15.50;99.90
20070;DHT22;10195;50.868;4.382;2023-08-06T14:37:10;15.50;99.90
20070;DHT22;10195;50.868;4.382;2023-08-06T14:39:36;15.80;99.90
20070;DHT22;10195;50.868;4.382;2023-08-06T14:42:01;15.80;99.90
20070;DHT22;10195;50.868;4.382;2023-08-06T14:44:27;15.90;99.90
20070;DHT22;10195;50.868;4.382;2023-08-06T14:46:53;15.90;99.90
20070;DHT22;10195;50.868;4.382;2023-08-06T14:49:19;15.80;99.90
20070;DHT22;10195;50.868;4.382;2023-08-06T14:51:45;15.80;99.90
20070;DHT22;10195;50.868;4.382;2023-08-06T14:54:11;15.90;99.90
20070;DHT22;10195;50.868;4.382;2023-08-06T14:56:37;15.90;99.90
20070;DHT22;10195;50.868;4.382;2023-08-06T14:59:02;15.90;99.90
20070;DHT22;10195;50.868;4.382;2023-08-06T15:01:28;15.90;99.90
20070;DHT22;10195;50.868;4.382;2023-08-06T15:03:54;16.10;99.90
20070;DHT22;10195;50.868;4.382;2023-08-06T15:06:19;16.10;99.90
20070;DHT22;10195;50.868;4.382;2023-08-06T15:08:45;16.20;99.90
20070;DHT22;10195;50.868;4.382;2023-08-06T15:11:13;15.90;99.90
20070;DHT22;10195;50.868;4.382;2023-08-06T15:13:39;15.60;99.90
20070;DHT22;10195;50.868;4.382;2023-08-06T15:16:05;15.50;99.90
20070;DHT22;10195;50.868;4.382;2023-08-06T15:18:30;15.30;99.90
20070;DHT22;10195;50.868;4.382;2023-08-06T15:20:56;15.10;99.90
20070;DHT22;10195;50.868;4.382;2023-08-06T15:23:23;14.90;99.90
20070;DHT22;10195;50.868;4.382;2023-08-06T15:25:49;14.60;99.90
20070;DHT22;10195;50.868;4.382;2023-08-06T15:28:15;14.60;99.90
20070;DHT22;10195;50.868;4.382;2023-08-06T15:30:40;14.60;99.90
20070;DHT22;10195;50.868;4.382;2023-08-06T15:33:12;14.60;99.90